createdAt,value
2022-12-19T00:01:07.634Z,102933.67
2022-12-19T00:06:14.649Z,102932.57
2022-12-19T00:11:22.193Z,102936.70
2022-12-19T00:16:30.213Z,102938.85
2022-12-19T00:21:36.642Z,102932.95
2022-12-19T00:26:42.526Z,102928.97
2022-12-19T00:31:48.273Z,102933.51
2022-12-19T00:36:54.411Z,102936.77
2022-12-19T00:42:00.486Z,102934.94
2022-12-19T00:47:06.420Z,102934.17
2022-12-19T00:52:12.446Z,102942.47
2022-12-19T00:57:18.191Z,102948.95
2022-12-19T01:02:24.201Z,102942.64
2022-12-19T01:07:30.582Z,102936.94
2022-12-19T01:12:47.629Z,102934.20
2022-12-19T01:17:53.873Z,102934.89
2022-12-19T01:23:00.387Z,102926.35
2022-12-19T01:28:08.238Z,102918.49
2022-12-19T01:33:17.798Z,102914.48
2022-12-19T01:38:23.769Z,102906.67
2022-12-19T01:43:32.062Z,102897.12
2022-12-19T01:48:43.067Z,102888.19
2022-12-19T01:53:54.044Z,102888.19
2022-12-19T01:59:06.554Z,102893.94
2022-12-19T02:04:16.599Z,102891.98
2022-12-19T02:09:26.095Z,102896.41
2022-12-19T02:14:32.551Z,102898.30
2022-12-19T02:20:20.889Z,102888.95
2022-12-19T02:25:49.260Z,102880.19
2022-12-19T02:31:13.808Z,102881.95
2022-12-19T02:36:32.965Z,102882.59
2022-12-19T02:41:50.400Z,102881.65
2022-12-19T02:47:01.204Z,102878.18
2022-12-19T02:52:28.038Z,102873.67
2022-12-19T02:57:42.002Z,102872.30
2022-12-19T03:03:01.115Z,102874.05
2022-12-19T03:08:12.753Z,102875.28
2022-12-19T03:13:21.888Z,102875.42
2022-12-19T03:18:28.259Z,102860.42
2022-12-19T03:23:34.686Z,102857.39
2022-12-19T03:28:46.946Z,102865.29
2022-12-19T03:33:58.716Z,102866.19
2022-12-19T03:39:08.928Z,102864.40
2022-12-19T03:44:17.336Z,102850.96
2022-12-19T03:49:23.350Z,102854.35
2022-12-19T03:54:35.033Z,102851.48
2022-12-19T03:59:45.451Z,102846.77
2022-12-19T04:04:52.638Z,102843.17
2022-12-19T04:10:02.683Z,102832.33
2022-12-19T04:15:14.045Z,102825.21
2022-12-19T04:20:22.331Z,102817.55
2022-12-19T04:25:31.213Z,102814.60
2022-12-19T04:30:40.162Z,102814.67
2022-12-19T04:35:46.062Z,102804.23
2022-12-19T04:40:51.859Z,102795.12
2022-12-19T04:45:57.984Z,102788.29
2022-12-19T04:51:04.101Z,102776.14
2022-12-19T04:56:11.269Z,102768.42
2022-12-19T05:01:18.608Z,102764.16
2022-12-19T05:06:24.717Z,102760.50
2022-12-19T05:11:30.652Z,102756.06
2022-12-19T05:16:36.369Z,102751.84
2022-12-19T05:21:42.495Z,102749.04
2022-12-19T05:26:49.599Z,102751.59
2022-12-19T05:31:55.921Z,102751.71
2022-12-19T05:37:03.642Z,102750.02
2022-12-19T05:42:12.515Z,102750.45
2022-12-19T05:47:21.260Z,102740.14
2022-12-19T05:52:26.984Z,102736.28
2022-12-19T05:57:33.229Z,102735.05
2022-12-19T06:02:39.091Z,102729.14
2022-12-19T06:07:46.563Z,102724.77
2022-12-19T06:12:53.045Z,102719.25
2022-12-19T06:17:59.508Z,102717.02
2022-12-19T06:23:05.564Z,102717.84
2022-12-19T06:28:11.799Z,102722.95
2022-12-19T06:33:17.782Z,102739.63
2022-12-19T06:38:23.715Z,102747.80
2022-12-19T06:43:29.878Z,102749.83
2022-12-19T06:48:36.566Z,102755.80
2022-12-19T06:53:42.730Z,102757.71
2022-12-19T06:58:49.245Z,102763.42
2022-12-19T07:03:55.756Z,102766.37
2022-12-19T07:09:01.758Z,102755.33
2022-12-19T07:14:07.751Z,102746.88
2022-12-19T07:19:17.089Z,102741.64
2022-12-19T07:24:23.025Z,102740.17
2022-12-19T07:29:29.023Z,102748.04
2022-12-19T07:34:34.989Z,102744.58
2022-12-19T07:39:41.041Z,102742.52
2022-12-19T07:44:46.782Z,102749.38
2022-12-19T07:49:53.162Z,102745.11
2022-12-19T07:54:59.714Z,102739.99
2022-12-19T08:00:07.018Z,102732.75
2022-12-19T08:05:19.046Z,102735.66
2022-12-19T08:10:24.974Z,102733.17
2022-12-19T08:15:31.183Z,102715.20
2022-12-19T08:20:37.116Z,102714.88
2022-12-19T08:25:42.939Z,102709.59
2022-12-19T08:30:49.230Z,102693.07
2022-12-19T08:35:55.151Z,102691.19
2022-12-19T08:45:56.506Z,102678.89
2022-12-19T08:51:03.771Z,102662.38
2022-12-19T08:56:13.489Z,102655.00
2022-12-19T09:01:20.927Z,102649.34
2022-12-19T09:06:27.203Z,102640.39
2022-12-19T09:11:33.535Z,102633.58
2022-12-19T09:16:42.077Z,102625.96
2022-12-19T09:21:48.050Z,102615.67
2022-12-19T09:26:53.700Z,102600.98
2022-12-19T09:31:59.380Z,102598.50
2022-12-19T09:37:05.465Z,102598.09
2022-12-19T09:42:31.082Z,102592.84
2022-12-19T09:47:42.586Z,102581.83
2022-12-19T09:52:57.723Z,102570.35
2022-12-19T09:58:11.476Z,102553.76
2022-12-19T10:03:22.166Z,102535.92
2022-12-19T10:08:32.070Z,102523.80
2022-12-19T10:14:00.742Z,102505.21
2022-12-19T10:19:09.196Z,102486.91
2022-12-19T10:24:35.945Z,102473.41
2022-12-19T10:29:53.967Z,102469.06
2022-12-19T10:35:00.603Z,102466.46
2022-12-19T10:40:27.349Z,102464.89
2022-12-19T10:45:39.460Z,102451.95
2022-12-19T10:50:47.273Z,102441.77
2022-12-19T10:55:55.155Z,102425.38
2022-12-19T11:01:13.524Z,102407.70
2022-12-19T11:06:47.526Z,102404.96
2022-12-19T11:15:50.428Z,102407.67
2022-12-19T11:24:43.959Z,102408.32
2022-12-19T11:30:47.111Z,102398.41
2022-12-19T11:30:49.027Z,102395.16
2022-12-19T11:34:07.461Z,102386.91
2022-12-19T11:39:21.422Z,102384.56
2022-12-19T11:44:44.043Z,102371.67
2022-12-19T11:50:00.172Z,102363.98
2022-12-19T11:55:15.782Z,102358.89
2022-12-19T12:00:24.530Z,102361.41
2022-12-19T12:05:46.416Z,102363.81
2022-12-19T12:16:13.453Z,102356.65
2022-12-19T12:26:30.555Z,102339.83
2022-12-19T12:31:13.774Z,102334.69
2022-12-19T12:31:54.269Z,102324.88
2022-12-19T12:35:34.426Z,102299.33
2022-12-19T12:39:16.007Z,102294.28
2022-12-19T12:44:33.367Z,102285.27
2022-12-19T12:49:44.226Z,102269.75
2022-12-19T12:54:53.700Z,102272.77
2022-12-19T13:00:20.875Z,102278.23
2022-12-19T13:05:46.233Z,102263.27
2022-12-19T13:10:58.059Z,102247.38
2022-12-19T13:16:41.434Z,102245.43
2022-12-19T13:22:15.781Z,102257.14
2022-12-19T13:27:48.014Z,102261.20
2022-12-19T13:33:17.069Z,102243.95
2022-12-19T13:39:48.575Z,102225.86
2022-12-19T13:43:58.554Z,102212.13
2022-12-19T13:49:07.007Z,102204.26
2022-12-19T13:54:28.481Z,102197.33
2022-12-19T13:59:40.347Z,102187.45
2022-12-19T14:04:51.514Z,102177.45
2022-12-19T14:11:27.639Z,102174.65
2022-12-19T14:15:28.600Z,102169.27
2022-12-19T14:22:04.658Z,102162.98
2022-12-19T14:28:21.102Z,102158.23
2022-12-19T14:31:27.678Z,102153.52
2022-12-19T14:36:35.975Z,102149.89
2022-12-19T14:42:04.149Z,102137.08
2022-12-19T14:54:07.404Z,102138.02
2022-12-19T14:54:28.465Z,102121.90
2022-12-19T14:58:55.503Z,102098.49
2022-12-19T15:04:48.951Z,102092.12
2022-12-19T15:11:00.517Z,102092.02
2022-12-19T15:14:59.012Z,102093.71
2022-12-19T15:20:09.190Z,102081.14
2022-12-19T15:25:44.007Z,102066.16
2022-12-19T15:30:48.193Z,102066.69
2022-12-19T15:35:55.222Z,102063.53
2022-12-19T15:41:01.204Z,102068.06
2022-12-19T15:46:07.422Z,102056.48
2022-12-19T15:51:14.940Z,102038.95
2022-12-19T15:56:28.780Z,102042.23
2022-12-19T16:01:34.637Z,102046.14
2022-12-19T16:06:40.448Z,102046.64
2022-12-19T16:11:46.387Z,102021.59
2022-12-19T16:16:54.812Z,102013.91
2022-12-19T16:22:01.615Z,102012.33
2022-12-19T16:27:11.460Z,102003.63
2022-12-19T16:32:18.253Z,101994.98
2022-12-19T16:37:31.813Z,101975.23
2022-12-19T16:42:39.401Z,101958.45
2022-12-19T16:47:45.196Z,101946.55
2022-12-19T16:52:51.323Z,101943.80
2022-12-19T16:57:58.931Z,101945.11
2022-12-19T17:03:09.437Z,101938.05
2022-12-19T17:08:15.603Z,101925.06
2022-12-19T17:13:24.018Z,101912.02
2022-12-19T17:18:33.265Z,101889.80
2022-12-19T17:23:38.926Z,101894.23
2022-12-19T17:28:48.126Z,101894.95
2022-12-19T17:33:58.178Z,101884.95
2022-12-19T17:39:11.472Z,101881.15
2022-12-19T17:44:17.706Z,101877.52
2022-12-19T17:49:27.506Z,101859.94
2022-12-19T17:54:33.381Z,101858.52
2022-12-19T17:59:39.034Z,101864.68
2022-12-19T18:04:44.755Z,101861.14
2022-12-19T18:09:50.474Z,101858.50
2022-12-19T18:14:56.190Z,101856.10
2022-12-19T18:20:03.215Z,101845.35
2022-12-19T18:25:18.340Z,101838.71
2022-12-19T18:30:25.838Z,101838.17
2022-12-19T18:35:35.870Z,101834.41
2022-12-19T18:40:42.843Z,101820.77
2022-12-19T18:45:51.656Z,101804.80
2022-12-19T18:51:00.640Z,101798.59
2022-12-19T18:56:07.548Z,101794.95
2022-12-19T19:01:16.395Z,101800.94
2022-12-19T19:06:25.863Z,101792.10
2022-12-19T19:11:31.656Z,101785.58
2022-12-19T19:16:38.394Z,101777.02
2022-12-19T19:21:44.649Z,101765.33
2022-12-19T19:26:50.460Z,101752.04
2022-12-19T19:31:56.263Z,101745.45
2022-12-19T19:37:14.729Z,101736.25
2022-12-19T19:42:20.459Z,101734.48
2022-12-19T19:47:32.345Z,101731.35
2022-12-19T19:52:41.415Z,101722.85
2022-12-19T19:57:53.275Z,101716.00
2022-12-19T20:03:06.273Z,101704.65
2022-12-19T20:08:29.000Z,101698.05
2022-12-19T20:13:45.107Z,101703.64
2022-12-19T20:18:52.820Z,101701.17
2022-12-19T20:23:58.903Z,101692.11
2022-12-19T20:29:06.880Z,101687.48
2022-12-19T20:34:12.580Z,101671.73
2022-12-19T20:39:22.326Z,101661.90
2022-12-19T20:44:28.397Z,101646.65
2022-12-19T20:49:34.510Z,101654.37
2022-12-19T20:54:40.460Z,101651.38
2022-12-19T20:59:46.258Z,101645.59
2022-12-19T21:04:52.834Z,101641.26
2022-12-19T21:09:58.500Z,101641.17
2022-12-19T21:15:04.848Z,101638.38
2022-12-19T21:20:11.995Z,101628.90
2022-12-19T21:25:17.887Z,101614.89
2022-12-19T21:30:23.621Z,101605.17
2022-12-19T21:35:29.647Z,101598.41
2022-12-19T21:40:37.074Z,101591.17
2022-12-19T21:45:42.783Z,101582.64
2022-12-19T21:50:56.616Z,101572.02
2022-12-19T21:56:08.479Z,101557.83
2022-12-19T22:01:15.695Z,101545.23
2022-12-19T22:06:28.407Z,101530.26
2022-12-19T22:11:35.766Z,101517.88
2022-12-19T22:16:42.699Z,101515.13
2022-12-19T22:21:49.122Z,101507.11
2022-12-19T22:26:54.718Z,101496.20
2022-12-19T22:32:00.584Z,101499.00
2022-12-19T22:37:06.317Z,101491.30
2022-12-19T22:42:11.968Z,101484.31
2022-12-19T22:47:17.807Z,101481.89
2022-12-19T22:52:24.768Z,101468.35
2022-12-19T22:57:30.572Z,101462.10
2022-12-19T23:02:38.367Z,101458.08
2022-12-19T23:07:45.414Z,101453.73
2022-12-19T23:12:51.375Z,101446.21
2022-12-19T23:17:57.177Z,101436.61
2022-12-19T23:23:03.096Z,101429.79
2022-12-19T23:28:09.508Z,101424.42
2022-12-19T23:33:15.233Z,101415.81
2022-12-19T23:38:21.019Z,101409.33
2022-12-19T23:43:26.781Z,101409.90
2022-12-19T23:48:32.754Z,101407.00
2022-12-19T23:53:38.483Z,101401.12
2022-12-19T23:58:45.723Z,101399.02
